createdAt,value
2023-04-02T00:00:47.304Z,0.00
2023-04-02T00:01:47.338Z,0.00
2023-04-02T00:02:47.324Z,0.00
2023-04-02T00:03:47.332Z,0.00
2023-04-02T00:04:47.287Z,0.00
2023-04-02T00:05:47.243Z,0.00
2023-04-02T00:06:47.254Z,0.00
2023-04-02T00:07:47.218Z,0.00
2023-04-02T00:08:47.233Z,0.00
2023-04-02T00:09:47.241Z,0.00
2023-04-02T00:10:47.227Z,0.00
2023-04-02T00:11:47.229Z,0.00
2023-04-02T00:12:47.189Z,0.00
2023-04-02T00:13:47.149Z,0.00
2023-04-02T00:14:47.165Z,0.00
2023-04-02T00:15:47.153Z,0.00
2023-04-02T00:16:47.267Z,0.00
2023-04-02T00:17:47.122Z,0.00
2023-04-02T00:18:47.124Z,0.00
2023-04-02T00:19:47.084Z,0.00
2023-04-02T00:20:47.096Z,0.00
2023-04-02T00:21:47.110Z,0.00
2023-04-02T00:22:47.082Z,0.00
2023-04-02T00:23:47.049Z,0.00
2023-04-02T00:24:47.056Z,0.00
2023-04-02T00:25:47.026Z,0.00
2023-04-02T00:26:47.070Z,0.00
2023-04-02T00:27:47.042Z,0.00
2023-04-02T00:28:47.020Z,0.00
2023-04-02T00:29:46.980Z,0.00
2023-04-02T00:30:46.999Z,0.00
2023-04-02T00:31:47.075Z,0.00
2023-04-02T00:32:47.014Z,0.00
2023-04-02T00:33:46.933Z,0.00
2023-04-02T00:34:46.962Z,0.00
2023-04-02T00:35:46.955Z,0.00
2023-04-02T00:36:46.938Z,0.00
2023-04-02T00:37:46.919Z,0.00
2023-04-02T00:38:48.274Z,0.00
2023-04-02T00:39:46.885Z,0.00
2023-04-02T00:40:46.889Z,0.00
2023-04-02T00:41:46.957Z,0.00
2023-04-02T00:42:46.873Z,0.00
2023-04-02T00:43:46.903Z,0.00
2023-04-02T00:44:46.844Z,0.00
2023-04-02T00:45:46.857Z,0.00
2023-04-02T00:46:47.294Z,0.00
2023-04-02T00:47:46.870Z,0.00
2023-04-02T00:48:46.807Z,0.00
2023-04-02T00:49:46.797Z,0.00
2023-04-02T00:50:46.790Z,0.00
2023-04-02T00:51:46.755Z,0.00
2023-04-02T00:52:46.766Z,0.00
2023-04-02T00:53:46.753Z,0.00
2023-04-02T00:54:46.748Z,0.00
2023-04-02T00:55:46.710Z,0.00
2023-04-02T00:56:46.730Z,0.00
2023-04-02T00:57:46.756Z,0.00
2023-04-02T00:58:46.734Z,0.00
2023-04-02T00:59:46.681Z,0.00
2023-04-02T01:00:46.699Z,0.00
2023-04-02T01:01:46.721Z,0.00
2023-04-02T01:02:46.723Z,0.00
2023-04-02T01:03:46.752Z,0.00
2023-04-02T01:04:46.635Z,0.00
2023-04-02T01:05:46.628Z,0.00
2023-04-02T01:06:46.625Z,0.00
2023-04-02T01:07:46.587Z,0.00
2023-04-02T01:08:46.597Z,0.00
2023-04-02T01:09:46.587Z,0.00
2023-04-02T01:10:46.570Z,0.00
2023-04-02T01:11:46.540Z,0.00
2023-04-02T01:12:46.555Z,0.00
2023-04-02T01:13:46.523Z,0.00
2023-04-02T01:14:46.572Z,0.00
2023-04-02T01:15:46.570Z,0.00
2023-04-02T01:16:46.512Z,0.00
2023-04-02T01:17:46.502Z,0.00
2023-04-02T01:18:46.521Z,0.00
2023-04-02T01:19:46.487Z,0.00
2023-04-02T01:20:46.494Z,0.00
2023-04-02T01:21:46.463Z,0.00
2023-04-02T01:22:46.474Z,0.00
2023-04-02T01:23:46.422Z,0.00
2023-04-02T01:24:46.427Z,0.00
2023-04-02T01:25:46.427Z,0.00
2023-04-02T01:26:46.408Z,0.00
2023-04-02T01:27:46.368Z,0.00
2023-04-02T01:28:46.395Z,0.00
2023-04-02T01:29:46.377Z,0.00
2023-04-02T01:30:46.374Z,0.00
2023-04-02T01:31:46.441Z,0.00
2023-04-02T01:32:46.421Z,0.00
2023-04-02T01:33:46.331Z,0.00
2023-04-02T01:34:46.332Z,0.00
2023-04-02T01:35:46.312Z,0.00
2023-04-02T01:36:46.314Z,0.00
2023-04-02T01:37:46.265Z,0.00
2023-04-02T01:38:46.281Z,0.00
2023-04-02T01:39:46.268Z,0.00
2023-04-02T01:40:46.269Z,0.00
2023-04-02T01:41:46.241Z,0.00
2023-04-02T01:42:46.285Z,0.00
2023-04-02T01:43:46.204Z,0.00
2023-04-02T01:44:46.219Z,0.00
2023-04-02T01:45:46.185Z,0.00
2023-04-02T01:46:46.256Z,0.00
2023-04-02T01:47:46.202Z,0.00
2023-04-02T01:48:46.185Z,0.00
2023-04-02T01:49:46.133Z,0.00
2023-04-02T01:50:46.168Z,0.00
2023-04-02T01:51:46.124Z,0.00
2023-04-02T01:52:46.151Z,0.00
2023-04-02T01:53:46.116Z,0.00
2023-04-02T01:54:46.103Z,0.00
2023-04-02T01:55:46.088Z,0.00
2023-04-02T01:56:46.082Z,0.00
2023-04-02T01:57:46.056Z,0.00
2023-04-02T01:58:46.091Z,0.00
2023-04-02T01:59:46.037Z,0.00
2023-04-02T02:00:46.068Z,0.00
2023-04-02T02:01:46.083Z,0.00
2023-04-02T02:02:46.342Z,0.00
2023-04-02T02:03:46.012Z,0.00
2023-04-02T02:04:46.006Z,0.00
2023-04-02T02:05:45.963Z,0.00
2023-04-02T02:06:45.999Z,0.00
2023-04-02T02:07:45.948Z,0.00
2023-04-02T02:08:45.965Z,0.00
2023-04-02T02:09:45.961Z,0.00
2023-04-02T02:10:45.934Z,0.00
2023-04-02T02:11:45.916Z,0.00
2023-04-02T02:12:45.928Z,0.00
2023-04-02T02:13:45.912Z,0.00
2023-04-02T02:14:45.899Z,0.00
2023-04-02T02:15:45.890Z,0.00
2023-04-02T02:16:45.934Z,0.00
2023-04-02T02:17:45.873Z,0.00
2023-04-02T02:18:45.862Z,0.00
2023-04-02T02:19:45.828Z,0.00
2023-04-02T02:20:45.857Z,0.00
2023-04-02T02:21:45.810Z,0.00
2023-04-02T02:22:45.833Z,0.00
2023-04-02T02:23:45.805Z,0.00
2023-04-02T02:24:45.835Z,0.00
2023-04-02T02:25:45.790Z,0.00
2023-04-02T02:26:45.792Z,0.00
2023-04-02T02:27:45.777Z,0.00
2023-04-02T02:28:45.758Z,0.00
2023-04-02T02:29:45.760Z,0.00
2023-04-02T02:30:45.746Z,0.00
2023-04-02T02:31:45.719Z,0.00
2023-04-02T02:32:45.811Z,0.00
2023-04-02T02:33:45.709Z,0.00
2023-04-02T02:34:45.698Z,0.00
2023-04-02T02:35:45.684Z,0.00
2023-04-02T02:36:45.688Z,0.00
2023-04-02T02:37:45.645Z,0.00
2023-04-02T02:38:45.660Z,0.00
2023-04-02T02:39:45.637Z,0.00
2023-04-02T02:40:45.652Z,0.00
2023-04-02T02:41:45.626Z,0.00
2023-04-02T02:42:45.611Z,0.00
2023-04-02T02:43:45.585Z,0.00
2023-04-02T02:44:45.594Z,0.00
2023-04-02T02:45:45.572Z,0.00
2023-04-02T02:46:45.858Z,0.00
2023-04-02T02:47:45.669Z,0.00
2023-04-02T02:48:45.551Z,0.00
2023-04-02T02:49:45.523Z,0.00
2023-04-02T02:50:45.540Z,0.00
2023-04-02T02:51:46.053Z,0.00
2023-04-02T02:52:45.518Z,0.00
2023-04-02T02:53:45.475Z,0.00
2023-04-02T02:54:45.496Z,0.00
2023-04-02T02:55:45.452Z,0.00
2023-04-02T02:56:45.485Z,0.00
2023-04-02T02:57:45.468Z,0.00
2023-04-02T02:58:45.440Z,0.00
2023-04-02T02:59:45.462Z,0.00
2023-04-02T03:00:45.435Z,0.00
2023-04-02T03:01:45.461Z,0.00
2023-04-02T03:02:45.509Z,0.00
2023-04-02T03:03:45.576Z,0.00
2023-04-02T03:04:45.445Z,0.00
2023-04-02T03:05:45.348Z,0.00
2023-04-02T03:06:45.357Z,0.00
2023-04-02T03:07:45.321Z,0.00
2023-04-02T03:08:45.381Z,0.00
2023-04-02T03:09:45.320Z,0.00
2023-04-02T03:10:45.319Z,0.00
2023-04-02T03:11:45.290Z,0.00
2023-04-02T03:12:45.316Z,0.00
2023-04-02T03:13:45.288Z,0.00
2023-04-02T03:14:45.308Z,0.00
2023-04-02T03:15:45.251Z,0.00
2023-04-02T03:16:45.264Z,0.00
2023-04-02T03:17:45.284Z,0.00
2023-04-02T03:18:45.240Z,0.00
2023-04-02T03:19:45.213Z,0.00
2023-04-02T03:20:45.225Z,0.00
2023-04-02T03:21:45.183Z,0.00
2023-04-02T03:22:45.215Z,0.00
2023-04-02T03:23:45.211Z,0.00
2023-04-02T03:24:45.182Z,0.00
2023-04-02T03:25:45.145Z,0.00
2023-04-02T03:26:45.164Z,0.00
2023-04-02T03:27:45.143Z,0.00
2023-04-02T03:28:45.176Z,0.00
2023-04-02T03:29:45.100Z,0.00
2023-04-02T03:30:45.131Z,0.00
2023-04-02T03:31:45.112Z,0.00
2023-04-02T03:32:45.122Z,0.00
2023-04-02T03:33:45.064Z,0.00
2023-04-02T03:34:45.100Z,0.00
2023-04-02T03:35:45.051Z,0.00
2023-04-02T03:36:45.054Z,0.00
2023-04-02T03:37:45.023Z,0.00
2023-04-02T03:38:45.039Z,0.00
2023-04-02T03:39:45.008Z,0.00
2023-04-02T03:40:45.039Z,0.00
2023-04-02T03:41:44.996Z,0.00
2023-04-02T03:42:44.997Z,0.00
2023-04-02T03:43:44.964Z,0.00
2023-04-02T03:44:44.969Z,0.00
2023-04-02T03:45:44.989Z,0.00
2023-04-02T03:46:45.021Z,0.00
2023-04-02T03:47:44.984Z,0.00
2023-04-02T03:48:44.940Z,0.00
2023-04-02T03:49:44.928Z,0.00
2023-04-02T03:50:44.911Z,0.00
2023-04-02T03:51:44.878Z,0.00
2023-04-02T03:52:44.899Z,0.00
2023-04-02T03:53:44.860Z,0.00
2023-04-02T03:54:53.916Z,0.00
2023-04-02T03:55:44.879Z,0.00
2023-04-02T03:56:44.857Z,0.00
2023-04-02T03:57:44.807Z,0.00
2023-04-02T03:58:44.836Z,0.00
2023-04-02T03:59:44.820Z,0.00
2023-04-02T04:00:44.807Z,0.00
2023-04-02T04:01:44.838Z,0.00
2023-04-02T04:02:44.795Z,0.00
2023-04-02T04:03:44.796Z,0.00
2023-04-02T04:04:44.745Z,0.00
2023-04-02T04:05:44.755Z,0.00
2023-04-02T04:06:44.742Z,0.00
2023-04-02T04:07:44.745Z,0.00
2023-04-02T04:08:44.702Z,0.00
2023-04-02T04:09:44.720Z,0.00
2023-04-02T04:10:44.696Z,0.00
2023-04-02T04:11:44.714Z,0.00
2023-04-02T04:12:44.682Z,0.00
2023-04-02T04:13:44.687Z,0.00
2023-04-02T04:14:45.341Z,0.00
2023-04-02T04:15:44.643Z,0.00
2023-04-02T04:16:44.711Z,0.00
2023-04-02T04:17:44.681Z,0.00
2023-04-02T04:18:44.593Z,0.00
2023-04-02T04:19:44.611Z,0.00
2023-04-02T04:20:44.576Z,0.00
2023-04-02T04:21:44.583Z,0.00
2023-04-02T04:22:44.578Z,0.00
2023-04-02T04:23:44.599Z,0.00
2023-04-02T04:24:44.549Z,0.00
2023-04-02T04:25:44.583Z,0.00
2023-04-02T04:26:44.524Z,0.00
2023-04-02T04:27:44.552Z,0.00
2023-04-02T04:28:44.496Z,0.00
2023-04-02T04:29:44.505Z,0.00
2023-04-02T04:30:44.469Z,0.00
2023-04-02T04:31:44.492Z,0.00
2023-04-02T04:32:44.484Z,0.00
2023-04-02T04:33:44.485Z,0.00
2023-04-02T04:34:44.428Z,0.00
2023-04-02T04:35:44.464Z,0.00
2023-04-02T04:36:44.451Z,0.00
2023-04-02T04:37:44.377Z,0.00
2023-04-02T04:38:44.385Z,0.00
2023-04-02T04:39:44.396Z,0.00
2023-04-02T04:40:44.396Z,0.00
2023-04-02T04:41:44.352Z,0.00
2023-04-02T04:42:44.290Z,0.00
2023-04-02T04:43:44.303Z,0.00
2023-04-02T04:44:44.297Z,0.00
2023-04-02T04:45:44.308Z,0.00
2023-04-02T04:46:44.252Z,0.00
2023-04-02T04:47:44.394Z,0.00
2023-04-02T04:48:44.283Z,0.00
2023-04-02T04:49:44.306Z,0.00
2023-04-02T04:50:44.238Z,0.00
2023-04-02T04:51:44.221Z,0.00
2023-04-02T04:52:44.187Z,0.00
2023-04-02T04:53:44.199Z,0.00
2023-04-02T04:54:44.189Z,0.00
2023-04-02T04:55:44.206Z,0.00
2023-04-02T04:56:44.148Z,0.00
2023-04-02T04:57:44.158Z,0.00
2023-04-02T04:58:44.126Z,0.00
2023-04-02T04:59:44.142Z,0.00
2023-04-02T05:00:44.211Z,0.00
2023-04-02T05:01:44.160Z,0.00
2023-04-02T05:02:44.141Z,0.00
2023-04-02T05:03:44.102Z,0.00
2023-04-02T05:04:44.098Z,0.00
2023-04-02T05:05:44.072Z,0.00
2023-04-02T05:06:44.084Z,0.00
2023-04-02T05:07:44.063Z,0.00
2023-04-02T05:08:44.032Z,0.00
2023-04-02T05:09:44.052Z,0.00
2023-04-02T05:10:44.023Z,0.00
2023-04-02T05:11:44.016Z,0.00
2023-04-02T05:12:43.981Z,0.00
2023-04-02T05:13:43.999Z,0.00
2023-04-02T05:14:43.962Z,0.00
2023-04-02T05:15:44.012Z,0.00
2023-04-02T05:16:43.978Z,0.00
2023-04-02T05:17:44.010Z,0.00
2023-04-02T05:18:43.916Z,0.00
2023-04-02T05:19:43.934Z,0.00
2023-04-02T05:20:43.897Z,0.00
2023-04-02T05:21:43.921Z,0.00
2023-04-02T05:22:43.917Z,0.00
2023-04-02T05:23:43.898Z,0.00
2023-04-02T05:24:43.877Z,0.00
2023-04-02T05:25:43.874Z,0.00
2023-04-02T05:26:43.844Z,0.00
2023-04-02T05:27:43.858Z,0.00
2023-04-02T05:28:44.369Z,0.00
2023-04-02T05:29:44.337Z,0.00
2023-04-02T05:30:43.802Z,0.00
2023-04-02T05:31:43.880Z,0.00
2023-04-02T05:32:43.916Z,0.00
2023-04-02T05:33:43.794Z,0.00
2023-04-02T05:34:43.754Z,0.00
2023-04-02T05:35:43.800Z,0.00
2023-04-02T05:36:43.736Z,0.00
2023-04-02T05:37:43.771Z,0.00
2023-04-02T05:38:43.731Z,0.00
2023-04-02T05:39:43.726Z,0.00
2023-04-02T05:40:43.741Z,0.00
2023-04-02T05:41:43.770Z,0.00
2023-04-02T05:42:43.673Z,0.00
2023-04-02T05:43:43.684Z,0.00
2023-04-02T05:44:43.675Z,0.00
2023-04-02T05:45:43.670Z,0.00
2023-04-02T05:46:43.682Z,0.00
2023-04-02T05:47:43.681Z,0.00
2023-04-02T05:48:43.619Z,0.00
2023-04-02T05:49:43.620Z,0.00
2023-04-02T05:50:43.631Z,0.00
2023-04-02T05:51:43.609Z,0.00
2023-04-02T05:52:43.569Z,0.00
2023-04-02T05:53:43.581Z,0.00
2023-04-02T05:54:43.557Z,0.00
2023-04-02T05:55:43.605Z,0.00
2023-04-02T05:56:43.531Z,0.00
2023-04-02T05:57:49.689Z,0.00
2023-04-02T05:58:45.506Z,0.00
2023-04-02T05:59:43.526Z,0.00
2023-04-02T06:00:43.626Z,0.00
2023-04-02T06:01:43.532Z,0.00
2023-04-02T06:02:43.544Z,0.00
2023-04-02T06:03:43.606Z,0.00
2023-04-02T06:04:43.444Z,0.00
2023-04-02T06:05:43.452Z,0.00
2023-04-02T06:06:43.460Z,0.00
2023-04-02T06:07:43.442Z,0.00
2023-04-02T06:08:43.415Z,0.00
2023-04-02T06:09:43.418Z,0.00
2023-04-02T06:10:43.376Z,0.00
2023-04-02T06:11:43.414Z,0.00
2023-04-02T06:12:43.382Z,0.00
2023-04-02T06:13:43.386Z,0.00
2023-04-02T06:14:43.339Z,0.00
2023-04-02T06:15:43.699Z,0.00
2023-04-02T06:16:43.364Z,0.00
2023-04-02T06:17:43.403Z,0.00
2023-04-02T06:18:43.288Z,0.00
2023-04-02T06:19:43.304Z,0.00
2023-04-02T06:20:43.279Z,0.00
2023-04-02T06:21:43.282Z,0.00
2023-04-02T06:22:43.266Z,0.00
2023-04-02T06:23:43.292Z,0.00
2023-04-02T06:24:43.234Z,0.00
2023-04-02T06:25:43.241Z,0.00
2023-04-02T06:26:43.208Z,0.00
2023-04-02T06:27:43.227Z,0.00
2023-04-02T06:28:43.257Z,0.00
2023-04-02T06:29:43.210Z,0.00
2023-04-02T06:30:43.193Z,0.00
2023-04-02T06:31:43.180Z,0.00
2023-04-02T06:32:43.200Z,0.00
2023-04-02T06:33:43.157Z,0.00
2023-04-02T06:34:43.151Z,0.00
2023-04-02T06:35:43.156Z,0.00
2023-04-02T06:36:43.111Z,5.62
2023-04-02T06:37:43.124Z,5.62
2023-04-02T06:38:43.134Z,5.62
2023-04-02T06:39:43.135Z,5.62
2023-04-02T06:40:43.068Z,5.62
2023-04-02T06:41:43.075Z,5.62
2023-04-02T06:42:43.044Z,5.62
2023-04-02T06:43:43.076Z,5.62
2023-04-02T06:44:43.073Z,5.62
2023-04-02T06:45:43.085Z,5.62
2023-04-02T06:46:43.030Z,5.62
2023-04-02T06:47:43.057Z,5.62
2023-04-02T06:48:42.984Z,5.62
2023-04-02T06:49:43.027Z,5.62
2023-04-02T06:50:42.962Z,5.62
2023-04-02T06:51:42.974Z,0.00
2023-04-02T06:52:42.943Z,0.00
2023-04-02T06:53:42.968Z,0.00
2023-04-02T06:54:43.064Z,0.00
2023-04-02T06:55:42.931Z,0.00
2023-04-02T06:56:42.904Z,0.00
2023-04-02T06:57:43.059Z,0.00
2023-04-02T06:58:42.876Z,0.00
2023-04-02T06:59:42.894Z,0.00
2023-04-02T07:00:42.876Z,0.00
2023-04-02T07:01:42.926Z,0.00
2023-04-02T07:02:42.933Z,0.00
2023-04-02T07:03:42.852Z,0.00
2023-04-02T07:04:42.859Z,0.00
2023-04-02T07:05:43.170Z,0.00
2023-04-02T07:06:42.803Z,0.00
2023-04-02T07:07:42.812Z,0.00
2023-04-02T07:08:42.781Z,5.62
2023-04-02T07:09:42.789Z,5.62
2023-04-02T07:10:42.750Z,5.62
2023-04-02T07:11:42.788Z,5.62
2023-04-02T07:12:42.737Z,5.62
2023-04-02T07:13:42.749Z,5.62
2023-04-02T07:14:42.720Z,0.00
2023-04-02T07:15:42.742Z,0.00
2023-04-02T07:16:42.714Z,0.00
2023-04-02T07:17:42.764Z,0.00
2023-04-02T07:18:42.667Z,0.00
2023-04-02T07:19:42.677Z,0.00
2023-04-02T07:20:42.655Z,0.00
2023-04-02T07:21:42.682Z,0.00
2023-04-02T07:22:42.645Z,0.00
2023-04-02T07:23:42.655Z,0.00
2023-04-02T07:24:42.650Z,0.00
2023-04-02T07:25:42.665Z,0.00
2023-04-02T07:26:42.592Z,0.00
2023-04-02T07:27:42.596Z,0.00
2023-04-02T07:28:42.566Z,5.62
2023-04-02T07:29:42.619Z,5.62
2023-04-02T07:30:42.549Z,5.62
2023-04-02T07:31:42.644Z,5.62
2023-04-02T07:32:42.564Z,5.62
2023-04-02T07:33:42.536Z,5.62
2023-04-02T07:34:42.499Z,5.62
2023-04-02T07:35:42.538Z,5.62
2023-04-02T07:36:42.474Z,5.62
2023-04-02T07:37:42.529Z,5.62
2023-04-02T07:38:42.577Z,5.62
2023-04-02T07:39:42.502Z,5.62
2023-04-02T07:40:42.435Z,5.62
2023-04-02T07:41:42.452Z,5.62
2023-04-02T07:42:42.423Z,5.62
2023-04-02T07:43:42.436Z,5.62
2023-04-02T07:44:42.436Z,5.62
2023-04-02T07:45:42.431Z,5.62
2023-04-02T07:46:42.441Z,5.62
2023-04-02T07:47:42.428Z,5.62
2023-04-02T07:48:42.350Z,5.62
2023-04-02T07:49:42.406Z,5.62
2023-04-02T07:50:42.372Z,5.62
2023-04-02T07:51:42.343Z,5.62
2023-04-02T07:52:42.321Z,5.62
2023-04-02T07:53:42.333Z,5.62
2023-04-02T07:54:42.306Z,5.62
2023-04-02T07:55:42.298Z,5.62
2023-04-02T07:56:42.308Z,5.62
2023-04-02T07:57:44.295Z,5.62
2023-04-02T07:58:42.269Z,5.62
2023-04-02T07:59:42.260Z,5.62
2023-04-02T08:00:42.962Z,5.62
2023-04-02T08:01:42.262Z,5.62
2023-04-02T08:02:42.226Z,5.62
2023-04-02T08:03:42.276Z,5.62
2023-04-02T08:04:42.219Z,5.62
2023-04-02T08:05:42.201Z,5.62
2023-04-02T08:06:42.172Z,5.62
2023-04-02T08:07:42.178Z,5.62
2023-04-02T08:08:42.144Z,5.62
2023-04-02T08:09:42.197Z,5.62
2023-04-02T08:10:42.137Z,5.62
2023-04-02T08:11:42.183Z,5.62
2023-04-02T08:12:42.105Z,5.62
2023-04-02T08:13:42.124Z,5.62
2023-04-02T08:14:42.094Z,5.62
2023-04-02T08:15:42.108Z,5.62
2023-04-02T08:16:42.163Z,5.62
2023-04-02T08:17:42.125Z,5.62
2023-04-02T08:18:42.067Z,5.62
2023-04-02T08:19:54.249Z,5.62
2023-04-02T08:20:42.085Z,5.62
2023-04-02T08:21:42.057Z,5.62
2023-04-02T08:22:42.036Z,5.62
2023-04-02T08:23:42.000Z,5.62
2023-04-02T08:24:42.016Z,5.62
2023-04-02T08:25:42.020Z,5.62
2023-04-02T08:26:43.982Z,5.62
2023-04-02T08:27:42.002Z,5.62
2023-04-02T08:28:41.967Z,5.62
2023-04-02T08:29:41.939Z,5.62
2023-04-02T08:30:41.987Z,5.62
2023-04-02T08:31:41.921Z,5.62
2023-04-02T08:32:42.015Z,5.62
2023-04-02T08:33:41.928Z,5.62
2023-04-02T08:34:41.913Z,5.62
2023-04-02T08:35:41.938Z,5.62
2023-04-02T08:36:41.883Z,5.62
2023-04-02T08:37:41.869Z,5.62
2023-04-02T08:38:41.892Z,5.62
2023-04-02T08:39:41.875Z,5.62
2023-04-02T08:40:41.838Z,5.62
2023-04-02T08:41:41.811Z,5.62
2023-04-02T08:42:41.818Z,5.62
2023-04-02T08:43:41.811Z,5.62
2023-04-02T08:44:41.803Z,5.62
2023-04-02T08:45:42.071Z,5.62
2023-04-02T08:46:41.783Z,5.62
2023-04-02T08:47:41.772Z,5.62
2023-04-02T08:48:42.688Z,11.25
2023-04-02T08:49:41.725Z,11.25
2023-04-02T08:50:41.736Z,11.25
2023-04-02T08:51:41.713Z,11.25
2023-04-02T08:52:41.731Z,11.25
2023-04-02T08:53:41.680Z,11.25
2023-04-02T08:54:41.724Z,11.25
2023-04-02T08:55:41.684Z,11.25
2023-04-02T08:56:41.670Z,11.25
2023-04-02T08:57:41.642Z,11.25
2023-04-02T08:58:41.683Z,5.62
2023-04-02T08:59:41.644Z,5.62
2023-04-02T09:00:41.627Z,5.62
2023-04-02T09:01:41.683Z,5.62
2023-04-02T09:02:41.643Z,5.62
2023-04-02T09:03:41.578Z,5.62
2023-04-02T09:04:41.678Z,5.62
2023-04-02T09:05:41.583Z,5.62
2023-04-02T09:06:41.573Z,5.62
2023-04-02T09:07:41.534Z,5.62
2023-04-02T09:08:41.553Z,5.62
2023-04-02T09:09:41.557Z,5.62
2023-04-02T09:10:41.537Z,5.62
2023-04-02T09:11:41.495Z,5.62
2023-04-02T09:12:42.309Z,5.62
2023-04-02T09:13:41.477Z,5.62
2023-04-02T09:14:41.540Z,5.62
2023-04-02T09:15:41.486Z,5.62
2023-04-02T09:16:41.474Z,5.62
2023-04-02T09:17:52.940Z,5.62
2023-04-02T09:18:41.476Z,5.62
2023-04-02T09:19:41.422Z,5.62
2023-04-02T09:20:41.458Z,5.62
2023-04-02T09:21:41.413Z,5.62
2023-04-02T09:22:41.406Z,5.62
2023-04-02T09:23:41.379Z,5.62
2023-04-02T09:24:41.400Z,5.62
2023-04-02T09:26:41.383Z,5.62
2023-04-02T09:27:41.334Z,5.62
2023-04-02T09:28:41.347Z,5.62
2023-04-02T09:29:41.310Z,5.62
2023-04-02T09:30:41.360Z,5.62
2023-04-02T09:31:41.324Z,5.62
2023-04-02T09:32:41.370Z,5.62
2023-04-02T09:33:41.264Z,5.62
2023-04-02T09:34:41.283Z,5.62
2023-04-02T09:35:41.474Z,5.62
2023-04-02T09:36:41.301Z,5.62
2023-04-02T09:37:41.229Z,5.62
2023-04-02T09:38:41.258Z,5.62
2023-04-02T09:39:41.217Z,5.62
2023-04-02T09:40:41.218Z,5.62
2023-04-02T09:41:41.211Z,5.62
2023-04-02T09:42:41.207Z,5.62
2023-04-02T09:43:41.176Z,5.62
2023-04-02T09:44:41.175Z,5.62
2023-04-02T09:45:41.144Z,5.62
2023-04-02T09:46:41.179Z,11.25
2023-04-02T09:47:42.488Z,11.25
2023-04-02T09:48:41.150Z,11.25
2023-04-02T09:49:41.098Z,11.25
2023-04-02T09:50:41.132Z,11.25
2023-04-02T09:51:41.104Z,11.25
2023-04-02T09:52:41.103Z,16.88
2023-04-02T09:53:42.569Z,16.88
2023-04-02T09:54:41.080Z,16.88
2023-04-02T09:55:41.045Z,16.88
2023-04-02T09:56:41.079Z,16.88
2023-04-02T09:57:41.048Z,16.88
2023-04-02T09:58:41.059Z,16.88
2023-04-02T09:59:41.001Z,16.88
2023-04-02T10:00:42.188Z,16.88
2023-04-02T10:01:41.002Z,16.88
2023-04-02T10:02:41.038Z,16.88
2023-04-02T10:03:40.965Z,16.88
2023-04-02T10:04:41.047Z,22.50
2023-04-02T10:05:41.786Z,22.50
2023-04-02T10:06:40.949Z,22.50
2023-04-02T10:07:40.908Z,22.50
2023-04-02T10:08:40.952Z,22.50
2023-04-02T10:09:40.930Z,22.50
2023-04-02T10:10:40.912Z,22.50
2023-04-02T10:11:46.584Z,22.50
2023-04-02T10:12:40.963Z,22.50
2023-04-02T10:13:40.853Z,22.50
2023-04-02T10:14:40.864Z,22.50
2023-04-02T10:15:40.832Z,22.50
2023-04-02T10:16:40.896Z,22.50
2023-04-02T10:17:40.854Z,22.50
2023-04-02T10:18:40.849Z,22.50
2023-04-02T10:19:40.789Z,22.50
2023-04-02T10:20:50.616Z,28.12
2023-04-02T10:21:40.771Z,28.12
2023-04-02T10:22:40.946Z,28.12
2023-04-02T10:23:40.746Z,28.12
2023-04-02T10:24:40.777Z,28.12
2023-04-02T10:25:40.791Z,28.12
2023-04-02T10:26:40.741Z,28.12
2023-04-02T10:27:40.710Z,28.12
2023-04-02T10:28:40.716Z,28.12
2023-04-02T10:29:40.693Z,28.12
2023-04-02T10:30:40.756Z,28.12
2023-04-02T10:31:40.669Z,28.12
2023-04-02T10:32:40.753Z,28.12
2023-04-02T10:33:40.653Z,33.75
2023-04-02T10:34:42.862Z,28.12
2023-04-02T10:35:40.668Z,28.12
2023-04-02T10:36:40.647Z,22.50
2023-04-02T10:37:40.599Z,22.50
2023-04-02T10:38:40.621Z,22.50
2023-04-02T10:39:40.594Z,22.50
2023-04-02T10:40:40.631Z,22.50
2023-04-02T10:41:40.565Z,22.50
2023-04-02T10:42:40.581Z,22.50
2023-04-02T10:43:40.546Z,22.50
2023-04-02T10:44:40.564Z,16.88
2023-04-02T10:45:40.552Z,16.88
2023-04-02T10:46:40.612Z,16.88
2023-04-02T10:47:40.554Z,16.88
2023-04-02T10:48:40.547Z,16.88
2023-04-02T10:49:40.515Z,16.88
2023-04-02T10:50:40.497Z,16.88
2023-04-02T10:51:40.490Z,16.88
2023-04-02T10:52:40.503Z,16.88
2023-04-02T10:53:40.437Z,16.88
2023-04-02T10:54:40.454Z,16.88
2023-04-02T10:55:40.451Z,16.88
2023-04-02T10:56:49.981Z,16.88
2023-04-02T10:57:40.533Z,16.88
2023-04-02T10:58:40.420Z,16.88
2023-04-02T10:59:40.416Z,16.88
2023-04-02T11:00:40.395Z,16.88
2023-04-02T11:01:40.409Z,16.88
2023-04-02T11:02:40.599Z,16.88
2023-04-02T11:03:40.654Z,16.88
2023-04-02T11:04:40.352Z,16.88
2023-04-02T11:05:40.334Z,16.88
2023-04-02T11:06:40.338Z,16.88
2023-04-02T11:07:40.297Z,16.88
2023-04-02T11:08:40.362Z,16.88
2023-04-02T11:09:40.274Z,16.88
2023-04-02T11:10:40.299Z,16.88
2023-04-02T11:11:40.251Z,16.88
2023-04-02T11:12:42.066Z,16.88
2023-04-02T11:13:40.253Z,16.88
2023-04-02T11:14:40.260Z,16.88
2023-04-02T11:15:40.254Z,16.88
2023-04-02T11:16:44.070Z,16.88
2023-04-02T11:17:40.209Z,16.88
2023-04-02T11:18:40.241Z,16.88
2023-04-02T11:19:40.169Z,16.88
2023-04-02T11:20:40.225Z,16.88
2023-04-02T11:21:51.071Z,16.88
2023-04-02T11:22:40.167Z,16.88
2023-04-02T11:23:40.163Z,16.88
2023-04-02T11:24:40.133Z,16.88
2023-04-02T11:25:40.116Z,16.88
2023-04-02T11:26:40.140Z,16.88
2023-04-02T11:27:40.106Z,16.88
2023-04-02T11:28:40.101Z,16.88
2023-04-02T11:29:40.088Z,16.88
2023-04-02T11:30:40.108Z,16.88
2023-04-02T11:31:40.103Z,16.88
2023-04-02T11:32:40.106Z,16.88
2023-04-02T11:33:43.093Z,16.88
2023-04-02T11:34:40.060Z,16.88
2023-04-02T11:35:40.266Z,16.88
2023-04-02T11:36:40.015Z,16.88
2023-04-02T11:37:39.998Z,22.50
2023-04-02T11:38:40.011Z,22.50
2023-04-02T11:39:39.987Z,22.50
2023-04-02T11:40:39.979Z,22.50
2023-04-02T11:41:39.949Z,22.50
2023-04-02T11:42:39.985Z,22.50
2023-04-02T11:43:39.921Z,22.50
2023-04-02T11:44:39.947Z,22.50
2023-04-02T11:45:51.895Z,22.50
2023-04-02T11:46:39.956Z,22.50
2023-04-02T11:47:39.908Z,22.50
2023-04-02T11:48:39.921Z,22.50
2023-04-02T11:49:40.040Z,22.50
2023-04-02T11:50:39.876Z,28.12
2023-04-02T11:51:39.838Z,28.12
2023-04-02T11:52:39.872Z,33.75
2023-04-02T11:53:39.850Z,33.75
2023-04-02T11:54:39.831Z,33.75
2023-04-02T11:55:39.994Z,33.75
2023-04-02T11:56:39.815Z,33.75
2023-04-02T11:57:39.889Z,33.75
2023-04-02T11:58:39.811Z,28.12
2023-04-02T11:59:39.765Z,28.12
2023-04-02T12:00:39.769Z,28.12
2023-04-02T12:01:39.776Z,28.12
2023-04-02T12:02:39.849Z,33.75
2023-04-02T12:03:39.712Z,33.75
2023-04-02T12:04:39.757Z,33.75
2023-04-02T12:05:39.771Z,33.75
2023-04-02T12:06:39.718Z,33.75
2023-04-02T12:07:39.673Z,33.75
2023-04-02T12:08:47.460Z,33.75
2023-04-02T12:09:39.684Z,56.25
2023-04-02T12:10:39.663Z,33.75
2023-04-02T12:11:39.626Z,33.75
2023-04-02T12:12:39.659Z,33.75
2023-04-02T12:13:39.641Z,78.75
2023-04-02T12:14:39.625Z,33.75
2023-04-02T12:15:39.584Z,33.75
2023-04-02T12:16:39.633Z,33.75
2023-04-02T12:17:39.586Z,33.75
2023-04-02T12:18:39.586Z,33.75
2023-04-02T12:19:39.571Z,33.75
2023-04-02T12:20:39.569Z,33.75
2023-04-02T12:21:39.527Z,33.75
2023-04-02T12:22:39.556Z,33.75
2023-04-02T12:23:39.503Z,33.75
2023-04-02T12:24:39.526Z,33.75
2023-04-02T12:25:39.516Z,33.75
2023-04-02T12:26:39.496Z,33.75
2023-04-02T12:27:39.488Z,33.75
2023-04-02T12:28:39.476Z,33.75
2023-04-02T12:29:39.453Z,39.38
2023-04-02T12:30:39.519Z,39.38
2023-04-02T12:31:39.442Z,33.75
2023-04-02T12:32:39.426Z,33.75
2023-04-02T12:33:39.434Z,33.75
2023-04-02T12:34:39.386Z,39.38
2023-04-02T12:35:39.458Z,33.75
2023-04-02T12:36:39.396Z,33.75
2023-04-02T12:37:39.391Z,33.75
2023-04-02T12:38:39.356Z,39.38
2023-04-02T12:39:39.358Z,39.38
2023-04-02T12:40:39.335Z,67.50
2023-04-02T12:41:39.369Z,45.00
2023-04-02T12:42:39.302Z,39.38
2023-04-02T12:43:39.323Z,45.00
2023-04-02T12:44:39.282Z,45.00
2023-04-02T12:45:39.314Z,50.62
2023-04-02T12:46:39.395Z,39.38
2023-04-02T12:47:39.315Z,39.38
2023-04-02T12:48:39.241Z,39.38
2023-04-02T12:49:39.270Z,33.75
2023-04-02T12:50:39.234Z,33.75
2023-04-02T12:51:39.257Z,33.75
2023-04-02T12:52:39.230Z,33.75
2023-04-02T12:53:39.219Z,39.38
2023-04-02T12:54:39.199Z,33.75
2023-04-02T12:55:39.198Z,33.75
2023-04-02T12:56:39.164Z,28.12
2023-04-02T12:57:39.251Z,28.12
2023-04-02T12:58:39.168Z,28.12
2023-04-02T12:59:39.187Z,28.12
2023-04-02T13:00:39.331Z,28.12
2023-04-02T13:01:39.193Z,28.12
2023-04-02T13:02:39.161Z,28.12
2023-04-02T13:03:39.177Z,28.12
2023-04-02T13:04:39.082Z,28.12
2023-04-02T13:05:39.096Z,28.12
2023-04-02T13:06:39.059Z,28.12
2023-04-02T13:07:39.083Z,28.12
2023-04-02T13:08:39.039Z,28.12
2023-04-02T13:09:39.096Z,28.12
2023-04-02T13:10:39.048Z,28.12
2023-04-02T13:11:39.030Z,28.12
2023-04-02T13:12:39.028Z,28.12